CYDF/YDF METAR and TAF weather

Enter ICAO airport designator
Station Type Date Time Source
CYDF METAR 2020/03/31 21:00 UTC NOAA

CYDF 312100Z 04016G23KT 15SM OVC013 02/M00 A3006 RMK SC8 SLP182


Station Type Date Time Source
CYDF Decoded METAR 2020/03/31 21:00 UTC NOAA

Deer Lake, Nfld., Canada (CYDF) 49-13N 057-24W 22M
Mar 31, 2020 - 05:00 PM EDT / 2020.03.31 2100 UTC
Wind: from the NE (040 degrees) at 18 MPH (16 KT) gusting to 26 MPH (23 KT):0
Visibility: 15 mile(s):0
Sky conditions: overcast
Temperature: 35 F (2 C)
Windchill: 24 F (-4 C):1
Dew Point: 32 F (0 C)
Relative Humidity: 86%
Pressure (altimeter): 30.06 in. Hg (1017 hPa)
ob: CYDF 312100Z 04016G23KT 15SM OVC013 02/M00 A3006 RMK SC8 SLP182
cycle: 21

Station Type Date Time Source
CYDF TAF 2020/03/31 20:48 UTC NOAA

TAF CYDF 311944Z 3120/0108 05015KT P6SM OVC015
TEMPO 3120/0105 4SM -DZ BR OVC008 PROB30 0103/0105 OVC004
FM010500 04010KT 4SM -RA BR OVC006 PROB30 0105/0108 OVC004
RMK NXT FCST BY 010200Z

Example: see airport list